sensor_id;sensor_type;location;lat;lon;timestamp;P1;durP1;ratioP1;P2;durP2;ratioP2
15516;SDS011;7860;52.030;5.572;2023-08-06T00:04:15;6.70;;;3.62;;
15516;SDS011;7860;52.030;5.572;2023-08-06T00:04:15;7.17;;;3.22;;
15516;SDS011;7860;52.030;5.572;2023-08-06T00:04:15;6.55;;;3.30;;
15516;SDS011;7860;52.030;5.572;2023-08-06T00:04:16;8.10;;;3.43;;
15516;SDS011;7860;52.030;5.572;2023-08-06T00:04:55;6.94;;;3.41;;
15516;SDS011;7860;52.030;5.572;2023-08-06T00:05:55;6.79;;;3.44;;
15516;SDS011;7860;52.030;5.572;2023-08-06T00:06:56;6.43;;;3.50;;
15516;SDS011;7860;52.030;5.572;2023-08-06T00:07:56;7.05;;;3.54;;
15516;SDS011;7860;52.030;5.572;2023-08-06T00:08:56;7.65;;;3.66;;
15516;SDS011;7860;52.030;5.572;2023-08-06T00:09:56;6.72;;;3.53;;
15516;SDS011;7860;52.030;5.572;2023-08-06T00:10:56;6.43;;;3.54;;
15516;SDS011;7860;52.030;5.572;2023-08-06T00:11:56;7.42;;;3.49;;
15516;SDS011;7860;52.030;5.572;2023-08-06T00:12:56;7.06;;;3.51;;
15516;SDS011;7860;52.030;5.572;2023-08-06T00:13:56;8.89;;;3.71;;
15516;SDS011;7860;52.030;5.572;2023-08-06T00:14:56;8.12;;;3.65;;
15516;SDS011;7860;52.030;5.572;2023-08-06T00:16:07;5.93;;;3.18;;
15516;SDS011;7860;52.030;5.572;2023-08-06T00:16:56;7.26;;;3.35;;
15516;SDS011;7860;52.030;5.572;2023-08-06T00:17:56;6.90;;;3.34;;
15516;SDS011;7860;52.030;5.572;2023-08-06T00:18:56;8.71;;;3.64;;
15516;SDS011;7860;52.030;5.572;2023-08-06T00:19:56;7.64;;;3.79;;
15516;SDS011;7860;52.030;5.572;2023-08-06T00:20:56;7.83;;;3.76;;
15516;SDS011;7860;52.030;5.572;2023-08-06T00:21:57;7.78;;;3.78;;
15516;SDS011;7860;52.030;5.572;2023-08-06T00:22:57;8.54;;;3.67;;
15516;SDS011;7860;52.030;5.572;2023-08-06T00:23:57;7.41;;;3.88;;
15516;SDS011;7860;52.030;5.572;2023-08-06T00:24:57;7.05;;;3.88;;
15516;SDS011;7860;52.030;5.572;2023-08-06T00:25:57;7.06;;;3.80;;
15516;SDS011;7860;52.030;5.572;2023-08-06T00:26:57;8.17;;;3.58;;
15516;SDS011;7860;52.030;5.572;2023-08-06T00:27:57;6.70;;;3.71;;
15516;SDS011;7860;52.030;5.572;2023-08-06T00:28:57;7.32;;;3.68;;
15516;SDS011;7860;52.030;5.572;2023-08-06T00:29:57;7.12;;;3.80;;
15516;SDS011;7860;52.030;5.572;2023-08-06T00:30:57;6.98;;;3.55;;
15516;SDS011;7860;52.030;5.572;2023-08-06T00:31:57;8.34;;;4.00;;
15516;SDS011;7860;52.030;5.572;2023-08-06T00:32:57;8.47;;;3.63;;
15516;SDS011;7860;52.030;5.572;2023-08-06T00:33:57;9.01;;;3.94;;
15516;SDS011;7860;52.030;5.572;2023-08-06T00:34:58;8.65;;;3.96;;
15516;SDS011;7860;52.030;5.572;2023-08-06T00:35:58;8.92;;;3.90;;
15516;SDS011;7860;52.030;5.572;2023-08-06T00:36:58;7.58;;;3.62;;
15516;SDS011;7860;52.030;5.572;2023-08-06T00:37:58;9.06;;;3.78;;
15516;SDS011;7860;52.030;5.572;2023-08-06T00:38:58;8.09;;;4.16;;
15516;SDS011;7860;52.030;5.572;2023-08-06T00:39:58;7.62;;;3.71;;
15516;SDS011;7860;52.030;5.572;2023-08-06T00:40:58;7.17;;;3.66;;
15516;SDS011;7860;52.030;5.572;2023-08-06T00:41:58;6.99;;;3.77;;
15516;SDS011;7860;52.030;5.572;2023-08-06T00:42:58;8.05;;;3.76;;
15516;SDS011;7860;52.030;5.572;2023-08-06T00:43:58;7.18;;;3.97;;
15516;SDS011;7860;52.030;5.572;2023-08-06T00:44:58;7.84;;;3.96;;
15516;SDS011;7860;52.030;5.572;2023-08-06T00:45:58;7.61;;;3.92;;
15516;SDS011;7860;52.030;5.572;2023-08-06T00:46:58;9.24;;;3.85;;
15516;SDS011;7860;52.030;5.572;2023-08-06T00:47:58;9.43;;;4.31;;
15516;SDS011;7860;52.030;5.572;2023-08-06T00:48:58;7.10;;;3.71;;
15516;SDS011;7860;52.030;5.572;2023-08-06T00:49:59;8.14;;;4.03;;
15516;SDS011;7860;52.030;5.572;2023-08-06T00:50:59;7.64;;;4.08;;
15516;SDS011;7860;52.030;5.572;2023-08-06T00:51:59;7.67;;;3.96;;
15516;SDS011;7860;52.030;5.572;2023-08-06T00:52:59;8.82;;;3.97;;
15516;SDS011;7860;52.030;5.572;2023-08-06T00:53:59;7.16;;;3.80;;
15516;SDS011;7860;52.030;5.572;2023-08-06T00:54:59;7.54;;;3.78;;
15516;SDS011;7860;52.030;5.572;2023-08-06T00:55:59;9.30;;;3.86;;
15516;SDS011;7860;52.030;5.572;2023-08-06T00:56:59;7.56;;;3.81;;
15516;SDS011;7860;52.030;5.572;2023-08-06T00:57:59;8.71;;;4.13;;
15516;SDS011;7860;52.030;5.572;2023-08-06T00:58:59;8.54;;;4.13;;
15516;SDS011;7860;52.030;5.572;2023-08-06T00:59:59;9.01;;;4.04;;
15516;SDS011;7860;52.030;5.572;2023-08-06T01:01:00;8.00;;;4.06;;
15516;SDS011;7860;52.030;5.572;2023-08-06T01:01:59;9.71;;;4.30;;
15516;SDS011;7860;52.030;5.572;2023-08-06T01:02:59;7.73;;;3.88;;
15516;SDS011;7860;52.030;5.572;2023-08-06T01:04:00;8.92;;;3.94;;
15516;SDS011;7860;52.030;5.572;2023-08-06T01:05:00;6.97;;;3.88;;
15516;SDS011;7860;52.030;5.572;2023-08-06T01:06:00;8.63;;;3.93;;
15516;SDS011;7860;52.030;5.572;2023-08-06T01:07:02;6.73;;;4.00;;
15516;SDS011;7860;52.030;5.572;2023-08-06T01:08:05;8.54;;;4.19;;
15516;SDS011;7860;52.030;5.572;2023-08-06T01:09:01;7.62;;;4.25;;
15516;SDS011;7860;52.030;5.572;2023-08-06T01:10:07;7.76;;;4.15;;
15516;SDS011;7860;52.030;5.572;2023-08-06T01:11:06;7.48;;;3.80;;
15516;SDS011;7860;52.030;5.572;2023-08-06T01:12:05;8.36;;;3.70;;
15516;SDS011;7860;52.030;5.572;2023-08-06T01:13:04;8.11;;;4.11;;
15516;SDS011;7860;52.030;5.572;2023-08-06T01:14:02;7.58;;;3.77;;
15516;SDS011;7860;52.030;5.572;2023-08-06T01:15:04;8.29;;;3.93;;
15516;SDS011;7860;52.030;5.572;2023-08-06T01:16:02;7.46;;;3.90;;
15516;SDS011;7860;52.030;5.572;2023-08-06T01:17:02;7.26;;;3.81;;
15516;SDS011;7860;52.030;5.572;2023-08-06T01:18:01;6.94;;;3.66;;
15516;SDS011;7860;52.030;5.572;2023-08-06T01:19:02;7.92;;;3.94;;
15516;SDS011;7860;52.030;5.572;2023-08-06T01:20:02;7.45;;;3.54;;
15516;SDS011;7860;52.030;5.572;2023-08-06T01:21:02;7.71;;;3.75;;
15516;SDS011;7860;52.030;5.572;2023-08-06T01:22:02;7.11;;;3.32;;
15516;SDS011;7860;52.030;5.572;2023-08-06T01:23:02;8.34;;;4.04;;
15516;SDS011;7860;52.030;5.572;2023-08-06T01:24:02;8.10;;;3.90;;
15516;SDS011;7860;52.030;5.572;2023-08-06T01:25:02;7.96;;;3.64;;
15516;SDS011;7860;52.030;5.572;2023-08-06T01:26:08;8.13;;;3.62;;
15516;SDS011;7860;52.030;5.572;2023-08-06T01:27:04;8.72;;;3.73;;
15516;SDS011;7860;52.030;5.572;2023-08-06T01:28:05;7.31;;;3.69;;
15516;SDS011;7860;52.030;5.572;2023-08-06T01:29:03;9.13;;;3.69;;
15516;SDS011;7860;52.030;5.572;2023-08-06T01:30:05;8.44;;;3.98;;
15516;SDS011;7860;52.030;5.572;2023-08-06T01:31:04;7.83;;;3.77;;
15516;SDS011;7860;52.030;5.572;2023-08-06T01:32:03;7.28;;;3.58;;
15516;SDS011;7860;52.030;5.572;2023-08-06T01:33:04;6.88;;;3.70;;
15516;SDS011;7860;52.030;5.572;2023-08-06T01:34:04;7.87;;;3.95;;
15516;SDS011;7860;52.030;5.572;2023-08-06T01:35:04;7.35;;;3.91;;
15516;SDS011;7860;52.030;5.572;2023-08-06T01:36:04;8.20;;;4.24;;
15516;SDS011;7860;52.030;5.572;2023-08-06T01:37:04;8.35;;;3.80;;
15516;SDS011;7860;52.030;5.572;2023-08-06T01:38:04;7.96;;;3.78;;
15516;SDS011;7860;52.030;5.572;2023-08-06T01:39:04;8.35;;;4.13;;
15516;SDS011;7860;52.030;5.572;2023-08-06T01:40:05;11.14;;;4.52;;
15516;SDS011;7860;52.030;5.572;2023-08-06T01:41:04;8.03;;;4.22;;
15516;SDS011;7860;52.030;5.572;2023-08-06T01:42:04;8.76;;;4.35;;
15516;SDS011;7860;52.030;5.572;2023-08-06T01:43:04;9.16;;;4.42;;
15516;SDS011;7860;52.030;5.572;2023-08-06T01:44:04;8.76;;;4.52;;
15516;SDS011;7860;52.030;5.572;2023-08-06T01:45:05;9.63;;;4.65;;
15516;SDS011;7860;52.030;5.572;2023-08-06T01:46:04;8.25;;;4.35;;
15516;SDS011;7860;52.030;5.572;2023-08-06T01:47:05;8.35;;;4.47;;
15516;SDS011;7860;52.030;5.572;2023-08-06T01:48:04;8.79;;;4.67;;
15516;SDS011;7860;52.030;5.572;2023-08-06T01:49:04;9.85;;;4.62;;
15516;SDS011;7860;52.030;5.572;2023-08-06T01:50:05;8.93;;;4.84;;
15516;SDS011;7860;52.030;5.572;2023-08-06T01:51:05;9.94;;;4.66;;
15516;SDS011;7860;52.030;5.572;2023-08-06T01:52:05;10.14;;;5.37;;
15516;SDS011;7860;52.030;5.572;2023-08-06T01:53:06;10.58;;;5.01;;
15516;SDS011;7860;52.030;5.572;2023-08-06T01:54:06;10.23;;;4.91;;
15516;SDS011;7860;52.030;5.572;2023-08-06T01:55:06;11.20;;;5.69;;
15516;SDS011;7860;52.030;5.572;2023-08-06T01:56:06;8.83;;;4.86;;
15516;SDS011;7860;52.030;5.572;2023-08-06T01:57:06;8.64;;;5.19;;
15516;SDS011;7860;52.030;5.572;2023-08-06T01:58:06;10.67;;;6.15;;
15516;SDS011;7860;52.030;5.572;2023-08-06T01:59:06;10.03;;;6.02;;
15516;SDS011;7860;52.030;5.572;2023-08-06T02:00:07;11.26;;;6.34;;
15516;SDS011;7860;52.030;5.572;2023-08-06T02:01:06;12.49;;;6.54;;
15516;SDS011;7860;52.030;5.572;2023-08-06T02:02:06;10.69;;;6.24;;
15516;SDS011;7860;52.030;5.572;2023-08-06T02:03:06;11.64;;;6.95;;
15516;SDS011;7860;52.030;5.572;2023-08-06T02:04:07;12.01;;;6.31;;
15516;SDS011;7860;52.030;5.572;2023-08-06T02:05:07;11.97;;;6.61;;
15516;SDS011;7860;52.030;5.572;2023-08-06T02:06:07;11.87;;;6.72;;
15516;SDS011;7860;52.030;5.572;2023-08-06T02:07:07;11.91;;;6.84;;
15516;SDS011;7860;52.030;5.572;2023-08-06T02:08:07;9.89;;;6.33;;
15516;SDS011;7860;52.030;5.572;2023-08-06T02:09:07;11.40;;;6.56;;
15516;SDS011;7860;52.030;5.572;2023-08-06T02:10:07;11.38;;;6.95;;
15516;SDS011;7860;52.030;5.572;2023-08-06T02:11:07;10.98;;;6.68;;
15516;SDS011;7860;52.030;5.572;2023-08-06T02:12:07;13.21;;;7.06;;
15516;SDS011;7860;52.030;5.572;2023-08-06T02:13:07;10.77;;;6.94;;
15516;SDS011;7860;52.030;5.572;2023-08-06T02:14:07;11.58;;;7.10;;
15516;SDS011;7860;52.030;5.572;2023-08-06T02:15:07;12.08;;;7.27;;
15516;SDS011;7860;52.030;5.572;2023-08-06T02:16:07;14.34;;;7.13;;
15516;SDS011;7860;52.030;5.572;2023-08-06T02:17:07;10.74;;;6.64;;
15516;SDS011;7860;52.030;5.572;2023-08-06T02:18:07;12.07;;;6.84;;
15516;SDS011;7860;52.030;5.572;2023-08-06T02:19:07;12.71;;;7.02;;
15516;SDS011;7860;52.030;5.572;2023-08-06T02:20:08;11.41;;;6.68;;
15516;SDS011;7860;52.030;5.572;2023-08-06T02:21:08;11.01;;;6.79;;
15516;SDS011;7860;52.030;5.572;2023-08-06T02:22:08;10.39;;;6.54;;
15516;SDS011;7860;52.030;5.572;2023-08-06T02:23:08;10.38;;;6.29;;
15516;SDS011;7860;52.030;5.572;2023-08-06T02:24:08;12.72;;;6.81;;
15516;SDS011;7860;52.030;5.572;2023-08-06T02:25:08;10.66;;;6.66;;
15516;SDS011;7860;52.030;5.572;2023-08-06T02:26:08;11.39;;;6.71;;
15516;SDS011;7860;52.030;5.572;2023-08-06T02:27:08;10.96;;;6.55;;
15516;SDS011;7860;52.030;5.572;2023-08-06T02:28:08;10.87;;;6.62;;
15516;SDS011;7860;52.030;5.572;2023-08-06T02:29:08;11.59;;;6.76;;
15516;SDS011;7860;52.030;5.572;2023-08-06T02:30:08;11.05;;;6.30;;
15516;SDS011;7860;52.030;5.572;2023-08-06T02:31:08;10.39;;;6.46;;
15516;SDS011;7860;52.030;5.572;2023-08-06T02:32:08;11.08;;;6.41;;
15516;SDS011;7860;52.030;5.572;2023-08-06T02:33:08;11.23;;;6.32;;
15516;SDS011;7860;52.030;5.572;2023-08-06T02:34:08;11.30;;;6.32;;
15516;SDS011;7860;52.030;5.572;2023-08-06T02:35:08;11.53;;;6.44;;
15516;SDS011;7860;52.030;5.572;2023-08-06T02:36:09;11.07;;;6.60;;
15516;SDS011;7860;52.030;5.572;2023-08-06T02:37:09;11.81;;;6.33;;
15516;SDS011;7860;52.030;5.572;2023-08-06T02:38:09;13.00;;;6.45;;
15516;SDS011;7860;52.030;5.572;2023-08-06T02:39:09;11.16;;;5.84;;
15516;SDS011;7860;52.030;5.572;2023-08-06T02:40:09;11.24;;;6.29;;
15516;SDS011;7860;52.030;5.572;2023-08-06T02:41:09;10.61;;;6.44;;
15516;SDS011;7860;52.030;5.572;2023-08-06T02:42:09;10.10;;;5.71;;
15516;SDS011;7860;52.030;5.572;2023-08-06T02:43:09;10.84;;;5.77;;
15516;SDS011;7860;52.030;5.572;2023-08-06T02:44:09;10.94;;;6.31;;
15516;SDS011;7860;52.030;5.572;2023-08-06T02:45:09;10.86;;;6.22;;
15516;SDS011;7860;52.030;5.572;2023-08-06T02:46:09;9.56;;;5.64;;
15516;SDS011;7860;52.030;5.572;2023-08-06T02:47:09;11.57;;;6.07;;
15516;SDS011;7860;52.030;5.572;2023-08-06T02:48:09;10.03;;;6.13;;
15516;SDS011;7860;52.030;5.572;2023-08-06T02:49:09;11.31;;;6.44;;
15516;SDS011;7860;52.030;5.572;2023-08-06T02:50:09;9.56;;;6.12;;
15516;SDS011;7860;52.030;5.572;2023-08-06T02:51:09;10.57;;;5.98;;
15516;SDS011;7860;52.030;5.572;2023-08-06T02:52:09;10.60;;;5.82;;
15516;SDS011;7860;52.030;5.572;2023-08-06T02:53:09;11.58;;;6.47;;
15516;SDS011;7860;52.030;5.572;2023-08-06T02:54:09;10.37;;;6.19;;
15516;SDS011;7860;52.030;5.572;2023-08-06T02:55:10;10.96;;;6.21;;
15516;SDS011;7860;52.030;5.572;2023-08-06T02:56:10;10.30;;;6.12;;
15516;SDS011;7860;52.030;5.572;2023-08-06T02:57:10;11.92;;;5.88;;
15516;SDS011;7860;52.030;5.572;2023-08-06T02:58:10;11.59;;;6.11;;
15516;SDS011;7860;52.030;5.572;2023-08-06T02:59:10;10.60;;;5.97;;
15516;SDS011;7860;52.030;5.572;2023-08-06T03:00:10;10.95;;;6.34;;
15516;SDS011;7860;52.030;5.572;2023-08-06T03:01:10;10.71;;;6.63;;
15516;SDS011;7860;52.030;5.572;2023-08-06T03:02:10;11.03;;;6.26;;
15516;SDS011;7860;52.030;5.572;2023-08-06T03:03:10;12.00;;;6.86;;
15516;SDS011;7860;52.030;5.572;2023-08-06T03:04:10;9.79;;;5.83;;
15516;SDS011;7860;52.030;5.572;2023-08-06T03:05:10;11.19;;;6.31;;
15516;SDS011;7860;52.030;5.572;2023-08-06T03:06:10;12.14;;;6.22;;
15516;SDS011;7860;52.030;5.572;2023-08-06T03:07:10;11.84;;;6.73;;
15516;SDS011;7860;52.030;5.572;2023-08-06T03:08:10;10.17;;;6.05;;
15516;SDS011;7860;52.030;5.572;2023-08-06T03:09:10;10.42;;;5.56;;
15516;SDS011;7860;52.030;5.572;2023-08-06T03:10:11;10.35;;;6.43;;
15516;SDS011;7860;52.030;5.572;2023-08-06T03:11:11;10.91;;;6.63;;
15516;SDS011;7860;52.030;5.572;2023-08-06T03:12:11;10.61;;;6.79;;
15516;SDS011;7860;52.030;5.572;2023-08-06T03:13:11;10.57;;;6.40;;
15516;SDS011;7860;52.030;5.572;2023-08-06T03:14:11;11.52;;;6.49;;
15516;SDS011;7860;52.030;5.572;2023-08-06T03:15:11;10.91;;;7.03;;
15516;SDS011;7860;52.030;5.572;2023-08-06T03:16:11;10.41;;;6.47;;
15516;SDS011;7860;52.030;5.572;2023-08-06T03:17:11;11.52;;;6.87;;
15516;SDS011;7860;52.030;5.572;2023-08-06T03:18:11;11.75;;;6.83;;
15516;SDS011;7860;52.030;5.572;2023-08-06T03:19:11;11.04;;;6.76;;
15516;SDS011;7860;52.030;5.572;2023-08-06T03:20:11;10.91;;;6.47;;
15516;SDS011;7860;52.030;5.572;2023-08-06T03:21:11;11.76;;;6.51;;
15516;SDS011;7860;52.030;5.572;2023-08-06T03:22:11;13.90;;;7.08;;
15516;SDS011;7860;52.030;5.572;2023-08-06T03:23:11;10.39;;;6.90;;
15516;SDS011;7860;52.030;5.572;2023-08-06T03:24:13;12.41;;;6.89;;
15516;SDS011;7860;52.030;5.572;2023-08-06T03:25:11;11.50;;;6.78;;
15516;SDS011;7860;52.030;5.572;2023-08-06T03:26:12;12.65;;;6.66;;
15516;SDS011;7860;52.030;5.572;2023-08-06T03:27:12;10.99;;;6.88;;
15516;SDS011;7860;52.030;5.572;2023-08-06T03:28:12;11.24;;;6.81;;
15516;SDS011;7860;52.030;5.572;2023-08-06T03:29:12;10.89;;;6.50;;
15516;SDS011;7860;52.030;5.572;2023-08-06T03:30:12;10.71;;;6.84;;
15516;SDS011;7860;52.030;5.572;2023-08-06T03:31:12;15.08;;;7.47;;
15516;SDS011;7860;52.030;5.572;2023-08-06T03:32:12;11.69;;;7.28;;
15516;SDS011;7860;52.030;5.572;2023-08-06T03:33:12;13.40;;;6.61;;
15516;SDS011;7860;52.030;5.572;2023-08-06T03:34:12;13.43;;;7.59;;
15516;SDS011;7860;52.030;5.572;2023-08-06T03:35:12;10.91;;;7.36;;
15516;SDS011;7860;52.030;5.572;2023-08-06T03:36:12;11.52;;;7.12;;
15516;SDS011;7860;52.030;5.572;2023-08-06T03:37:12;12.39;;;7.47;;
15516;SDS011;7860;52.030;5.572;2023-08-06T03:38:12;10.86;;;6.87;;
15516;SDS011;7860;52.030;5.572;2023-08-06T03:39:12;10.82;;;6.88;;
15516;SDS011;7860;52.030;5.572;2023-08-06T03:40:12;12.01;;;7.55;;
15516;SDS011;7860;52.030;5.572;2023-08-06T03:41:12;11.86;;;7.78;;
15516;SDS011;7860;52.030;5.572;2023-08-06T03:42:12;13.93;;;7.62;;
15516;SDS011;7860;52.030;5.572;2023-08-06T03:43:13;11.69;;;7.37;;
15516;SDS011;7860;52.030;5.572;2023-08-06T03:44:13;11.96;;;7.50;;
15516;SDS011;7860;52.030;5.572;2023-08-06T03:45:13;12.15;;;7.81;;
15516;SDS011;7860;52.030;5.572;2023-08-06T03:46:13;13.29;;;7.87;;
15516;SDS011;7860;52.030;5.572;2023-08-06T03:47:13;13.04;;;7.90;;
15516;SDS011;7860;52.030;5.572;2023-08-06T03:48:13;13.22;;;8.23;;
15516;SDS011;7860;52.030;5.572;2023-08-06T03:49:13;12.54;;;8.26;;
15516;SDS011;7860;52.030;5.572;2023-08-06T03:50:13;13.00;;;8.43;;
15516;SDS011;7860;52.030;5.572;2023-08-06T03:51:13;13.35;;;8.25;;
15516;SDS011;7860;52.030;5.572;2023-08-06T03:52:13;12.32;;;8.03;;
15516;SDS011;7860;52.030;5.572;2023-08-06T03:53:13;13.82;;;8.29;;
15516;SDS011;7860;52.030;5.572;2023-08-06T03:54:13;12.56;;;8.37;;
15516;SDS011;7860;52.030;5.572;2023-08-06T03:55:13;12.92;;;8.46;;
15516;SDS011;7860;52.030;5.572;2023-08-06T03:56:13;13.41;;;8.37;;
15516;SDS011;7860;52.030;5.572;2023-08-06T03:57:14;12.76;;;7.86;;
15516;SDS011;7860;52.030;5.572;2023-08-06T03:58:14;12.15;;;8.18;;
15516;SDS011;7860;52.030;5.572;2023-08-06T03:59:14;11.35;;;7.59;;
15516;SDS011;7860;52.030;5.572;2023-08-06T04:00:14;12.64;;;8.19;;
15516;SDS011;7860;52.030;5.572;2023-08-06T04:01:14;12.88;;;7.91;;
15516;SDS011;7860;52.030;5.572;2023-08-06T04:02:14;13.01;;;8.24;;
15516;SDS011;7860;52.030;5.572;2023-08-06T04:03:14;13.24;;;8.40;;
15516;SDS011;7860;52.030;5.572;2023-08-06T04:04:14;11.63;;;7.63;;
15516;SDS011;7860;52.030;5.572;2023-08-06T04:05:14;14.45;;;8.36;;
15516;SDS011;7860;52.030;5.572;2023-08-06T04:06:14;13.33;;;8.09;;
15516;SDS011;7860;52.030;5.572;2023-08-06T04:07:14;13.60;;;8.13;;
15516;SDS011;7860;52.030;5.572;2023-08-06T04:08:14;13.26;;;8.44;;
15516;SDS011;7860;52.030;5.572;2023-08-06T04:09:14;12.01;;;7.86;;
15516;SDS011;7860;52.030;5.572;2023-08-06T04:10:14;11.55;;;7.98;;
15516;SDS011;7860;52.030;5.572;2023-08-06T04:11:14;12.00;;;8.07;;
15516;SDS011;7860;52.030;5.572;2023-08-06T04:12:14;11.49;;;7.83;;
15516;SDS011;7860;52.030;5.572;2023-08-06T04:13:14;12.56;;;8.68;;
15516;SDS011;7860;52.030;5.572;2023-08-06T04:14:14;11.26;;;7.60;;
15516;SDS011;7860;52.030;5.572;2023-08-06T04:15:15;14.00;;;8.85;;
15516;SDS011;7860;52.030;5.572;2023-08-06T04:16:15;13.62;;;8.40;;
15516;SDS011;7860;52.030;5.572;2023-08-06T04:17:15;13.55;;;8.40;;
15516;SDS011;7860;52.030;5.572;2023-08-06T04:18:15;13.47;;;8.88;;
15516;SDS011;7860;52.030;5.572;2023-08-06T04:19:15;12.63;;;8.39;;
15516;SDS011;7860;52.030;5.572;2023-08-06T04:20:15;12.63;;;8.05;;
15516;SDS011;7860;52.030;5.572;2023-08-06T04:21:15;13.16;;;8.68;;
15516;SDS011;7860;52.030;5.572;2023-08-06T04:22:15;13.57;;;8.36;;
15516;SDS011;7860;52.030;5.572;2023-08-06T04:23:15;13.91;;;8.61;;
15516;SDS011;7860;52.030;5.572;2023-08-06T04:24:15;14.26;;;8.86;;
15516;SDS011;7860;52.030;5.572;2023-08-06T04:25:15;13.09;;;8.41;;
15516;SDS011;7860;52.030;5.572;2023-08-06T04:26:15;12.74;;;8.24;;
15516;SDS011;7860;52.030;5.572;2023-08-06T04:27:16;13.73;;;8.75;;
15516;SDS011;7860;52.030;5.572;2023-08-06T04:28:15;13.29;;;8.68;;
15516;SDS011;7860;52.030;5.572;2023-08-06T04:29:15;13.23;;;8.51;;
15516;SDS011;7860;52.030;5.572;2023-08-06T04:30:16;13.06;;;8.47;;
15516;SDS011;7860;52.030;5.572;2023-08-06T04:31:16;13.01;;;8.27;;
15516;SDS011;7860;52.030;5.572;2023-08-06T04:32:16;12.64;;;8.13;;
15516;SDS011;7860;52.030;5.572;2023-08-06T04:33:16;13.17;;;8.62;;
15516;SDS011;7860;52.030;5.572;2023-08-06T04:34:16;13.68;;;8.45;;
15516;SDS011;7860;52.030;5.572;2023-08-06T04:35:16;12.84;;;8.36;;
15516;SDS011;7860;52.030;5.572;2023-08-06T04:36:16;12.57;;;8.55;;
15516;SDS011;7860;52.030;5.572;2023-08-06T04:37:16;14.07;;;8.34;;
15516;SDS011;7860;52.030;5.572;2023-08-06T04:38:16;13.11;;;8.71;;
15516;SDS011;7860;52.030;5.572;2023-08-06T04:39:16;12.46;;;8.31;;
15516;SDS011;7860;52.030;5.572;2023-08-06T04:40:16;14.00;;;8.51;;
15516;SDS011;7860;52.030;5.572;2023-08-06T04:41:16;13.02;;;7.91;;
15516;SDS011;7860;52.030;5.572;2023-08-06T04:42:16;13.44;;;8.49;;
15516;SDS011;7860;52.030;5.572;2023-08-06T04:43:16;12.56;;;8.74;;
15516;SDS011;7860;52.030;5.572;2023-08-06T04:44:17;13.53;;;8.49;;
15516;SDS011;7860;52.030;5.572;2023-08-06T04:45:17;12.27;;;8.23;;
15516;SDS011;7860;52.030;5.572;2023-08-06T04:46:18;12.91;;;8.53;;
15516;SDS011;7860;52.030;5.572;2023-08-06T04:47:18;13.09;;;8.46;;
15516;SDS011;7860;52.030;5.572;2023-08-06T04:48:18;12.72;;;8.64;;
15516;SDS011;7860;52.030;5.572;2023-08-06T04:49:18;13.91;;;8.40;;
15516;SDS011;7860;52.030;5.572;2023-08-06T04:50:19;12.32;;;8.34;;
15516;SDS011;7860;52.030;5.572;2023-08-06T04:51:18;14.11;;;8.11;;
15516;SDS011;7860;52.030;5.572;2023-08-06T04:52:18;12.18;;;8.06;;
15516;SDS011;7860;52.030;5.572;2023-08-06T04:53:18;12.63;;;8.72;;
15516;SDS011;7860;52.030;5.572;2023-08-06T04:54:18;13.15;;;8.21;;
15516;SDS011;7860;52.030;5.572;2023-08-06T04:55:18;14.17;;;8.37;;
15516;SDS011;7860;52.030;5.572;2023-08-06T04:56:18;12.88;;;7.96;;
15516;SDS011;7860;52.030;5.572;2023-08-06T04:57:18;13.70;;;8.71;;
15516;SDS011;7860;52.030;5.572;2023-08-06T04:58:18;12.34;;;7.49;;
15516;SDS011;7860;52.030;5.572;2023-08-06T04:59:19;12.69;;;7.38;;
15516;SDS011;7860;52.030;5.572;2023-08-06T05:00:19;11.25;;;7.84;;
15516;SDS011;7860;52.030;5.572;2023-08-06T05:01:19;13.04;;;8.56;;
15516;SDS011;7860;52.030;5.572;2023-08-06T05:02:19;13.11;;;8.54;;
15516;SDS011;7860;52.030;5.572;2023-08-06T05:03:19;13.57;;;8.00;;
15516;SDS011;7860;52.030;5.572;2023-08-06T05:04:19;12.77;;;6.77;;
15516;SDS011;7860;52.030;5.572;2023-08-06T05:05:19;12.27;;;7.92;;
15516;SDS011;7860;52.030;5.572;2023-08-06T05:06:19;11.74;;;8.11;;
15516;SDS011;7860;52.030;5.572;2023-08-06T05:07:19;13.88;;;8.17;;
15516;SDS011;7860;52.030;5.572;2023-08-06T05:08:19;13.92;;;8.70;;
15516;SDS011;7860;52.030;5.572;2023-08-06T05:09:19;12.22;;;8.24;;
15516;SDS011;7860;52.030;5.572;2023-08-06T05:10:19;13.99;;;9.03;;
15516;SDS011;7860;52.030;5.572;2023-08-06T05:11:19;16.74;;;8.91;;
15516;SDS011;7860;52.030;5.572;2023-08-06T05:12:19;14.26;;;9.12;;
15516;SDS011;7860;52.030;5.572;2023-08-06T05:13:19;12.53;;;8.29;;
15516;SDS011;7860;52.030;5.572;2023-08-06T05:14:20;14.00;;;8.94;;
15516;SDS011;7860;52.030;5.572;2023-08-06T05:15:20;14.00;;;9.00;;
15516;SDS011;7860;52.030;5.572;2023-08-06T05:16:20;13.54;;;9.19;;
15516;SDS011;7860;52.030;5.572;2023-08-06T05:17:20;13.82;;;8.95;;
15516;SDS011;7860;52.030;5.572;2023-08-06T05:18:20;13.73;;;8.53;;
15516;SDS011;7860;52.030;5.572;2023-08-06T05:19:20;14.37;;;9.38;;
15516;SDS011;7860;52.030;5.572;2023-08-06T05:20:20;14.16;;;9.07;;
15516;SDS011;7860;52.030;5.572;2023-08-06T05:21:20;15.73;;;10.05;;
15516;SDS011;7860;52.030;5.572;2023-08-06T05:22:20;13.67;;;9.18;;
15516;SDS011;7860;52.030;5.572;2023-08-06T05:23:20;16.73;;;9.52;;
15516;SDS011;7860;52.030;5.572;2023-08-06T05:24:20;16.69;;;9.86;;
15516;SDS011;7860;52.030;5.572;2023-08-06T05:25:20;15.44;;;9.24;;
15516;SDS011;7860;52.030;5.572;2023-08-06T05:26:20;13.42;;;9.15;;
15516;SDS011;7860;52.030;5.572;2023-08-06T05:27:20;13.70;;;9.08;;
15516;SDS011;7860;52.030;5.572;2023-08-06T05:28:21;13.99;;;9.44;;
15516;SDS011;7860;52.030;5.572;2023-08-06T05:29:21;14.34;;;9.16;;
15516;SDS011;7860;52.030;5.572;2023-08-06T05:30:21;15.63;;;9.76;;
15516;SDS011;7860;52.030;5.572;2023-08-06T05:31:21;13.21;;;9.08;;
15516;SDS011;7860;52.030;5.572;2023-08-06T05:32:21;14.38;;;9.65;;
15516;SDS011;7860;52.030;5.572;2023-08-06T05:33:21;13.95;;;9.48;;
15516;SDS011;7860;52.030;5.572;2023-08-06T05:34:21;13.11;;;8.89;;
15516;SDS011;7860;52.030;5.572;2023-08-06T05:35:21;14.06;;;8.78;;
15516;SDS011;7860;52.030;5.572;2023-08-06T05:36:21;13.73;;;8.66;;
15516;SDS011;7860;52.030;5.572;2023-08-06T05:37:21;14.15;;;9.31;;
15516;SDS011;7860;52.030;5.572;2023-08-06T05:38:21;13.82;;;8.68;;
15516;SDS011;7860;52.030;5.572;2023-08-06T05:39:21;13.08;;;8.79;;
15516;SDS011;7860;52.030;5.572;2023-08-06T05:40:21;14.19;;;9.09;;
15516;SDS011;7860;52.030;5.572;2023-08-06T05:41:21;15.78;;;9.43;;
15516;SDS011;7860;52.030;5.572;2023-08-06T05:42:22;14.21;;;9.18;;
15516;SDS011;7860;52.030;5.572;2023-08-06T05:43:22;14.12;;;9.41;;
15516;SDS011;7860;52.030;5.572;2023-08-06T05:44:23;13.45;;;9.31;;
15516;SDS011;7860;52.030;5.572;2023-08-06T05:45:22;13.45;;;9.23;;
15516;SDS011;7860;52.030;5.572;2023-08-06T05:46:22;14.02;;;9.17;;
15516;SDS011;7860;52.030;5.572;2023-08-06T05:47:22;13.67;;;9.25;;
15516;SDS011;7860;52.030;5.572;2023-08-06T05:48:22;13.23;;;8.72;;
15516;SDS011;7860;52.030;5.572;2023-08-06T05:49:22;13.77;;;9.12;;
15516;SDS011;7860;52.030;5.572;2023-08-06T05:50:22;14.23;;;9.32;;
15516;SDS011;7860;52.030;5.572;2023-08-06T05:51:22;13.63;;;8.67;;
15516;SDS011;7860;52.030;5.572;2023-08-06T05:52:22;15.12;;;9.72;;
15516;SDS011;7860;52.030;5.572;2023-08-06T05:53:22;13.11;;;8.85;;
15516;SDS011;7860;52.030;5.572;2023-08-06T05:54:22;12.66;;;8.86;;
15516;SDS011;7860;52.030;5.572;2023-08-06T05:55:22;14.38;;;9.69;;
15516;SDS011;7860;52.030;5.572;2023-08-06T05:56:22;14.73;;;9.83;;
15516;SDS011;7860;52.030;5.572;2023-08-06T05:57:22;13.70;;;9.40;;
15516;SDS011;7860;52.030;5.572;2023-08-06T05:58:23;13.41;;;9.61;;
15516;SDS011;7860;52.030;5.572;2023-08-06T05:59:23;13.75;;;9.27;;
15516;SDS011;7860;52.030;5.572;2023-08-06T06:00:23;13.44;;;9.22;;
15516;SDS011;7860;52.030;5.572;2023-08-06T06:01:23;14.94;;;9.89;;
15516;SDS011;7860;52.030;5.572;2023-08-06T06:02:23;13.88;;;9.66;;
15516;SDS011;7860;52.030;5.572;2023-08-06T06:03:23;14.63;;;8.93;;
15516;SDS011;7860;52.030;5.572;2023-08-06T06:04:25;14.26;;;9.75;;